Luis Lopez, New Mexico
Current Conditions -  °F | °C
As of 7:15 PM on Saturday 22 Nov 2014 (Local Time) from KONM Reporting Station
Clear Clear  
Wind Chill: 49°   Ceiling: Unl
Heat Index: 49°   Visibility: 10mi
Dew Point: 19°   Wind: 0mph
Humidity: 30%   Direction: NA
Pressure: 29.9"   Gusts: NA
Location:  33.8946°N, 106.565°W
Report Text: KONM 230215Z AUTO 00000KT 10SM CLR 10/M07 A2990 RMK AO2 T00961074
Loading
Personal Weather Stations






























Interactive Weather Map New forecast layout! Learn more

10-Day Weather Forecast

Advertisements
Track Severe Weather on mobile